createdAt,value
2018-12-15T00:00:00.580Z,12.53
2018-12-15T00:02:29.168Z,12.47
2018-12-15T00:04:57.571Z,28.03
2018-12-15T00:07:25.992Z,13.33
2018-12-15T00:09:54.397Z,14.37
2018-12-15T00:12:22.783Z,13.70
2018-12-15T00:14:51.340Z,11.83
2018-12-15T00:17:19.700Z,14.27
2018-12-15T00:19:48.308Z,13.07
2018-12-15T00:22:16.650Z,15.60
2018-12-15T00:24:45.156Z,12.63
2018-12-15T00:27:13.556Z,13.97
2018-12-15T00:29:42.834Z,11.83
2018-12-15T00:32:11.199Z,12.47
2018-12-15T00:34:39.597Z,13.57
2018-12-15T00:37:07.961Z,14.67
2018-12-15T00:39:36.356Z,10.93
2018-12-15T00:42:04.732Z,13.50
2018-12-15T00:44:33.130Z,14.03
2018-12-15T00:47:01.563Z,13.97
2018-12-15T00:49:29.960Z,13.83
2018-12-15T00:51:58.335Z,12.63
2018-12-15T00:54:26.711Z,13.73
2018-12-15T00:56:55.157Z,13.57
2018-12-15T00:59:23.520Z,14.43
2018-12-15T01:01:52.341Z,13.93
2018-12-15T01:04:20.766Z,13.57
2018-12-15T01:06:49.168Z,12.13
2018-12-15T01:09:17.594Z,12.43
2018-12-15T01:11:46.006Z,13.13
2018-12-15T01:14:14.405Z,12.37
2018-12-15T01:16:42.886Z,12.80
2018-12-15T01:19:11.240Z,13.03
2018-12-15T01:21:39.732Z,13.53
2018-12-15T01:24:08.697Z,13.93
2018-12-15T01:26:37.112Z,14.30
2018-12-15T01:29:05.450Z,13.67
2018-12-15T01:31:33.816Z,13.60
2018-12-15T01:34:02.797Z,13.90
2018-12-15T01:36:31.268Z,12.57
2018-12-15T01:38:59.616Z,13.63
2018-12-15T01:41:27.964Z,15.10
2018-12-15T01:43:56.356Z,14.30
2018-12-15T01:46:24.711Z,14.77
2018-12-15T01:48:53.757Z,13.67
2018-12-15T01:51:22.128Z,11.87
2018-12-15T01:53:50.535Z,11.80
2018-12-15T01:56:18.947Z,11.63
2018-12-15T01:58:47.554Z,14.23
2018-12-15T02:01:15.933Z,13.40
2018-12-15T02:03:44.314Z,13.77
2018-12-15T02:06:12.708Z,11.53
2018-12-15T02:08:41.040Z,13.60
2018-12-15T02:11:09.527Z,11.93
2018-12-15T02:13:37.893Z,12.20
2018-12-15T02:16:06.313Z,12.97
2018-12-15T02:18:34.688Z,13.30
2018-12-15T02:21:03.053Z,13.23
2018-12-15T02:23:31.436Z,10.77
2018-12-15T02:25:59.908Z,11.20
2018-12-15T02:28:28.349Z,12.80
2018-12-15T02:30:57.418Z,12.00
2018-12-15T02:33:25.820Z,12.10
2018-12-15T02:35:54.192Z,12.40
2018-12-15T02:38:22.581Z,12.17
2018-12-15T02:40:50.982Z,12.13
2018-12-15T02:43:19.596Z,11.87
2018-12-15T02:45:47.950Z,12.87
2018-12-15T02:48:16.336Z,11.70
2018-12-15T02:50:44.764Z,11.47
2018-12-15T02:53:13.157Z,12.80
2018-12-15T02:55:41.580Z,12.97
2018-12-15T02:58:09.985Z,11.83
2018-12-15T03:00:38.333Z,15.10
2018-12-15T03:03:06.738Z,14.03
2018-12-15T03:05:35.092Z,12.93
2018-12-15T03:08:04.286Z,11.53
2018-12-15T03:10:33.341Z,13.37
2018-12-15T03:13:01.759Z,19.80
2018-12-15T03:15:30.136Z,18.33
2018-12-15T03:17:58.510Z,10.40
2018-12-15T03:20:26.918Z,10.30
2018-12-15T03:22:55.282Z,11.97
2018-12-15T03:25:23.680Z,11.33
2018-12-15T03:27:52.453Z,12.37
2018-12-15T03:30:20.847Z,12.37
2018-12-15T03:32:50.031Z,13.20
2018-12-15T03:35:18.388Z,11.90
2018-12-15T03:37:46.787Z,13.60
2018-12-15T03:40:15.152Z,13.43
2018-12-15T03:42:44.031Z,13.23
2018-12-15T03:45:12.508Z,13.43
2018-12-15T03:47:40.897Z,10.37
2018-12-15T03:50:09.386Z,11.97
2018-12-15T03:52:37.735Z,13.23
2018-12-15T03:55:06.152Z,11.53
2018-12-15T03:57:34.638Z,10.27
2018-12-15T04:00:03.044Z,9.57
2018-12-15T04:02:31.477Z,10.00
2018-12-15T04:05:00.015Z,11.27
2018-12-15T04:07:28.371Z,12.03
2018-12-15T04:09:56.772Z,12.27
2018-12-15T04:12:25.128Z,12.30
2018-12-15T04:14:53.578Z,11.73
2018-12-15T04:17:21.963Z,11.33
2018-12-15T04:19:50.324Z,14.80
2018-12-15T04:22:20.836Z,12.27
2018-12-15T04:24:49.247Z,14.83
2018-12-15T04:27:17.596Z,11.40
2018-12-15T04:29:46.116Z,12.13
2018-12-15T04:32:14.528Z,12.90
2018-12-15T04:34:42.920Z,13.60
2018-12-15T04:37:11.307Z,10.80
2018-12-15T04:39:39.709Z,13.50
2018-12-15T04:42:08.107Z,12.77
2018-12-15T04:44:36.493Z,12.37
2018-12-15T04:47:05.473Z,12.93
2018-12-15T04:49:34.380Z,13.77
2018-12-15T04:52:02.756Z,12.70
2018-12-15T04:54:31.184Z,13.07
2018-12-15T04:56:59.570Z,11.50
2018-12-15T04:59:27.923Z,16.03
2018-12-15T05:01:56.303Z,12.90
2018-12-15T05:04:24.661Z,12.87
2018-12-15T05:06:53.201Z,11.07
2018-12-15T05:09:21.964Z,12.73
2018-12-15T05:11:50.345Z,12.80
2018-12-15T05:14:18.705Z,12.07
2018-12-15T05:16:47.112Z,11.77
2018-12-15T05:19:15.496Z,12.70
2018-12-15T05:21:43.893Z,12.03
2018-12-15T05:24:12.347Z,11.13
2018-12-15T05:26:40.917Z,14.20
2018-12-15T05:29:09.519Z,13.37
2018-12-15T05:31:37.976Z,11.83
2018-12-15T05:34:06.348Z,11.07
2018-12-15T05:36:34.739Z,13.90
2018-12-15T05:39:04.644Z,12.63
2018-12-15T05:41:33.014Z,14.97
2018-12-15T05:44:01.508Z,12.67
2018-12-15T05:46:29.933Z,12.90
2018-12-15T05:48:58.317Z,14.50
2018-12-15T05:51:26.922Z,13.63
2018-12-15T05:53:56.991Z,11.87
2018-12-15T05:56:26.438Z,15.77
2018-12-15T05:58:55.043Z,14.03
2018-12-15T06:01:23.493Z,14.13
2018-12-15T06:03:51.878Z,11.40
2018-12-15T06:06:20.384Z,12.10
2018-12-15T06:08:48.761Z,15.63
2018-12-15T06:11:17.542Z,12.67
2018-12-15T06:13:45.926Z,13.77
2018-12-15T06:16:14.456Z,12.80
2018-12-15T06:18:42.860Z,11.77
2018-12-15T06:21:11.244Z,12.83
2018-12-15T06:23:39.716Z,12.23
2018-12-15T06:26:08.212Z,12.23
2018-12-15T06:28:36.608Z,14.23
2018-12-15T06:31:05.025Z,14.17
2018-12-15T06:33:33.436Z,14.03
2018-12-15T06:36:02.424Z,13.33
2018-12-15T06:38:30.792Z,12.27
2018-12-15T06:40:59.188Z,21.43
2018-12-15T06:43:28.189Z,13.27
2018-12-15T06:45:56.957Z,11.03
2018-12-15T06:48:25.343Z,15.10
2018-12-15T06:50:53.751Z,12.03
2018-12-15T06:53:22.366Z,14.60
2018-12-15T06:55:50.797Z,13.27
2018-12-15T06:58:19.220Z,12.73
2018-12-15T07:00:47.634Z,13.53
2018-12-15T07:03:16.061Z,10.67
2018-12-15T07:05:44.412Z,12.83
2018-12-15T07:08:12.800Z,12.77
2018-12-15T07:10:41.213Z,14.03
2018-12-15T07:13:09.640Z,14.07
2018-12-15T07:15:38.058Z,15.13
2018-12-15T07:18:06.509Z,14.47
2018-12-15T07:20:34.929Z,15.00
2018-12-15T07:23:03.321Z,13.83
2018-12-15T07:25:32.493Z,14.50
2018-12-15T07:28:00.873Z,12.73
2018-12-15T07:30:29.479Z,14.50
2018-12-15T07:32:58.120Z,13.80
2018-12-15T07:35:26.728Z,12.30
2018-12-15T07:37:55.140Z,13.47
2018-12-15T07:40:23.556Z,13.07
2018-12-15T07:42:52.107Z,13.23
2018-12-15T07:45:20.509Z,13.07
2018-12-15T07:47:48.932Z,13.40
2018-12-15T07:50:17.414Z,14.13
2018-12-15T07:52:45.971Z,13.47
2018-12-15T07:55:14.339Z,12.97
2018-12-15T07:57:42.732Z,14.70
2018-12-15T08:00:11.804Z,13.97
2018-12-15T08:02:40.759Z,13.07
2018-12-15T08:05:09.184Z,13.87
2018-12-15T08:07:37.858Z,14.20
2018-12-15T08:10:06.738Z,16.33
2018-12-15T08:12:40.486Z,14.30
2018-12-15T08:15:09.737Z,13.30
2018-12-15T08:17:38.141Z,14.60
2018-12-15T08:20:09.441Z,14.60
2018-12-15T08:22:37.921Z,16.87
2018-12-15T08:25:07.372Z,14.37
2018-12-15T08:27:35.823Z,13.93
2018-12-15T08:30:05.252Z,14.57
2018-12-15T08:32:33.828Z,14.07
2018-12-15T08:35:02.235Z,14.40
2018-12-15T08:37:31.258Z,15.13
2018-12-15T08:39:59.791Z,11.50
2018-12-15T08:42:28.235Z,13.90
2018-12-15T08:44:56.732Z,13.70
2018-12-15T08:47:26.032Z,14.83
2018-12-15T08:49:54.596Z,17.20
2018-12-15T08:52:23.413Z,14.23
2018-12-15T08:54:52.221Z,17.20
2018-12-15T08:57:25.055Z,15.53
2018-12-15T08:59:54.332Z,14.47
2018-12-15T09:02:23.029Z,15.97
2018-12-15T09:04:52.328Z,15.90
2018-12-15T09:07:20.906Z,16.87
2018-12-15T09:09:50.168Z,18.03
2018-12-15T09:12:18.615Z,14.83
2018-12-15T09:14:47.008Z,14.63
2018-12-15T09:17:15.639Z,15.03
2018-12-15T09:19:44.104Z,13.27
2018-12-15T09:22:12.525Z,14.20
2018-12-15T09:24:42.089Z,14.73
2018-12-15T09:27:10.552Z,16.70
2018-12-15T09:29:38.960Z,17.27
2018-12-15T09:32:07.036Z,14.70
2018-12-15T09:34:35.636Z,16.00
2018-12-15T09:37:05.023Z,14.93
2018-12-15T09:39:34.207Z,16.47
2018-12-15T09:42:02.757Z,16.87
2018-12-15T09:44:31.228Z,17.07
2018-12-15T09:47:00.740Z,14.57
2018-12-15T09:49:29.571Z,16.07
2018-12-15T09:51:58.888Z,17.57
2018-12-15T09:54:27.359Z,15.33
2018-12-15T09:56:55.819Z,18.07
2018-12-15T09:59:24.263Z,15.13
2018-12-15T10:01:52.775Z,15.23
2018-12-15T10:04:21.199Z,15.40
2018-12-15T10:06:51.049Z,17.60
2018-12-15T10:09:20.096Z,16.83
2018-12-15T10:11:48.638Z,16.47
2018-12-15T10:14:17.127Z,15.50
2018-12-15T10:16:46.252Z,13.30
2018-12-15T10:19:14.677Z,14.00
2018-12-15T10:21:43.206Z,18.57
2018-12-15T10:24:11.978Z,18.77
2018-12-15T10:26:40.489Z,16.43
2018-12-15T10:29:13.149Z,17.10
2018-12-15T10:31:47.121Z,16.30
2018-12-15T10:34:15.520Z,16.70
2018-12-15T10:36:43.929Z,15.70
2018-12-15T10:39:12.339Z,18.37
2018-12-15T10:41:40.757Z,16.80
2018-12-15T10:44:09.136Z,17.10
2018-12-15T10:46:37.589Z,17.60
2018-12-15T10:49:06.677Z,15.40
2018-12-15T10:51:35.088Z,15.47
2018-12-15T10:54:03.576Z,15.97
2018-12-15T10:56:32.118Z,15.07
2018-12-15T10:59:00.573Z,17.50
2018-12-15T11:01:31.544Z,18.97
2018-12-15T11:04:00.865Z,16.50
2018-12-15T11:06:29.548Z,18.67
2018-12-15T11:08:58.074Z,16.37
2018-12-15T11:11:26.664Z,19.67
2018-12-15T11:13:55.104Z,19.00
2018-12-15T11:16:23.528Z,17.07
2018-12-15T11:18:51.934Z,19.77
2018-12-15T11:21:20.410Z,15.23
2018-12-15T11:23:48.818Z,19.03
2018-12-15T11:26:17.231Z,19.37
2018-12-15T11:28:45.780Z,21.40
2018-12-15T11:31:14.209Z,20.53
2018-12-15T11:33:42.683Z,23.20
2018-12-15T11:36:11.095Z,22.67
2018-12-15T11:38:39.531Z,20.20
2018-12-15T11:41:07.962Z,18.23
2018-12-15T11:43:36.592Z,17.97
2018-12-15T11:46:05.019Z,17.23
2018-12-15T11:48:33.430Z,15.83
2018-12-15T11:51:01.917Z,16.90
2018-12-15T11:53:30.298Z,20.90
2018-12-15T11:55:58.738Z,17.90
2018-12-15T11:58:27.216Z,20.57
2018-12-15T12:00:55.868Z,22.80
2018-12-15T12:03:24.285Z,18.73
2018-12-15T12:05:53.344Z,19.93
2018-12-15T12:08:21.790Z,20.17
2018-12-15T12:10:50.200Z,16.83
2018-12-15T12:13:18.664Z,16.07
2018-12-15T12:15:47.104Z,17.90
2018-12-15T12:18:15.564Z,19.40
2018-12-15T12:20:43.993Z,17.43
2018-12-15T12:23:12.453Z,17.10
2018-12-15T12:25:40.952Z,18.13
2018-12-15T12:28:09.332Z,24.77
2018-12-15T12:30:37.725Z,20.77
2018-12-15T12:33:06.183Z,21.53
2018-12-15T12:35:34.576Z,20.77
2018-12-15T12:38:03.016Z,20.37
2018-12-15T12:40:31.392Z,23.17
2018-12-15T12:43:00.468Z,27.47
2018-12-15T12:45:28.971Z,23.30
2018-12-15T12:47:57.777Z,24.30
2018-12-15T12:50:26.200Z,20.90
2018-12-15T12:52:54.588Z,20.63
2018-12-15T12:55:23.182Z,19.13
2018-12-15T12:57:51.589Z,20.53
2018-12-15T13:00:20.084Z,17.83
2018-12-15T13:02:49.455Z,24.70
2018-12-15T13:05:17.871Z,24.00
2018-12-15T13:07:46.340Z,23.07
2018-12-15T13:10:14.739Z,20.77
2018-12-15T13:12:43.357Z,17.90
2018-12-15T13:15:11.912Z,20.07
2018-12-15T13:17:41.051Z,19.63
2018-12-15T13:20:09.543Z,25.30
2018-12-15T13:22:38.068Z,23.30
2018-12-15T13:25:06.544Z,30.30
2018-12-15T13:27:35.077Z,26.97
2018-12-15T13:30:04.355Z,19.70
2018-12-15T13:32:32.832Z,19.03
2018-12-15T13:35:01.230Z,19.70
2018-12-15T13:37:29.682Z,19.60
2018-12-15T13:39:58.131Z,17.37
2018-12-15T13:42:26.673Z,17.67
2018-12-15T13:44:55.048Z,18.40
2018-12-15T13:47:23.549Z,17.93
2018-12-15T13:49:51.953Z,18.73
2018-12-15T13:52:20.481Z,19.40
2018-12-15T13:54:48.902Z,16.40
2018-12-15T13:57:17.329Z,19.47
2018-12-15T13:59:45.771Z,23.27
2018-12-15T14:02:14.199Z,20.90
2018-12-15T14:04:42.575Z,17.07
2018-12-15T14:07:10.993Z,18.07
2018-12-15T14:09:39.462Z,22.93
2018-12-15T14:12:07.940Z,22.43
2018-12-15T14:14:36.349Z,18.80
2018-12-15T14:17:04.853Z,20.23
2018-12-15T14:19:33.397Z,18.13
2018-12-15T14:22:01.771Z,18.37
2018-12-15T14:24:30.176Z,17.33
2018-12-15T14:26:58.637Z,19.43
2018-12-15T14:29:27.100Z,18.50
2018-12-15T14:31:55.697Z,20.43
2018-12-15T14:34:24.178Z,17.77
2018-12-15T14:36:52.639Z,17.70
2018-12-15T14:39:21.081Z,16.47
2018-12-15T14:41:49.475Z,22.50
2018-12-15T14:44:18.423Z,26.33
2018-12-15T14:46:46.843Z,22.60
2018-12-15T14:49:15.482Z,20.53
2018-12-15T14:51:43.889Z,22.77
2018-12-15T14:54:12.405Z,24.07
2018-12-15T14:56:40.839Z,58.40
2018-12-15T14:59:09.292Z,50.10
2018-12-15T15:01:37.727Z,43.33
2018-12-15T15:04:06.261Z,33.33
2018-12-15T15:06:34.680Z,18.67
2018-12-15T15:09:05.236Z,19.50
2018-12-15T15:11:33.750Z,28.60
2018-12-15T15:14:02.645Z,30.60
2018-12-15T15:16:31.075Z,29.10
2018-12-15T15:18:59.465Z,23.33
2018-12-15T15:21:28.497Z,19.83
2018-12-15T15:23:57.088Z,19.27
2018-12-15T15:26:25.665Z,19.50
2018-12-15T15:28:54.121Z,19.60
2018-12-15T15:31:22.570Z,17.87
2018-12-15T15:33:51.020Z,17.70
2018-12-15T15:36:19.491Z,20.77
2018-12-15T15:38:47.881Z,20.37
2018-12-15T15:41:16.330Z,22.40
2018-12-15T15:43:44.842Z,23.27
2018-12-15T15:46:14.646Z,21.23
2018-12-15T15:48:43.342Z,19.23
2018-12-15T15:51:11.807Z,21.00
2018-12-15T15:53:40.358Z,22.93
2018-12-15T15:56:08.913Z,22.30
2018-12-15T15:58:37.390Z,26.30
2018-12-15T16:01:05.818Z,28.43
2018-12-15T16:03:34.317Z,32.73
2018-12-15T16:06:02.801Z,18.23
2018-12-15T16:08:31.224Z,20.53
2018-12-15T16:10:59.621Z,18.97
2018-12-15T16:13:28.037Z,19.07
2018-12-15T16:15:56.454Z,24.47
2018-12-15T16:18:24.878Z,20.07
2018-12-15T16:20:54.222Z,18.20
2018-12-15T16:23:22.803Z,19.33
2018-12-15T16:25:51.271Z,20.13
2018-12-15T16:28:20.569Z,19.47
2018-12-15T16:30:49.025Z,22.33
2018-12-15T16:33:17.405Z,22.60
2018-12-15T16:35:45.815Z,24.53
2018-12-15T16:38:14.253Z,22.03
2018-12-15T16:40:42.748Z,20.83
2018-12-15T16:43:11.232Z,23.33
2018-12-15T16:45:39.753Z,23.23
2018-12-15T16:48:08.320Z,24.90
2018-12-15T16:50:36.901Z,23.70
2018-12-15T16:53:05.642Z,28.83
2018-12-15T16:55:34.111Z,26.50
2018-12-15T16:58:02.586Z,19.87
2018-12-15T17:00:31.113Z,22.40
2018-12-15T17:02:59.566Z,30.37
2018-12-15T17:05:28.030Z,27.97
2018-12-15T17:07:56.463Z,18.27
2018-12-15T17:10:24.866Z,20.27
2018-12-15T17:12:54.119Z,27.47
2018-12-15T17:15:22.561Z,41.93
2018-12-15T17:17:51.040Z,28.47
2018-12-15T17:20:19.623Z,26.07
2018-12-15T17:22:48.136Z,22.10
2018-12-15T17:25:16.582Z,18.60
2018-12-15T17:27:45.027Z,20.57
2018-12-15T17:30:13.413Z,23.77
2018-12-15T17:32:41.800Z,20.10
2018-12-15T17:35:10.338Z,22.73
2018-12-15T17:37:38.824Z,27.47
2018-12-15T17:40:09.229Z,20.27
2018-12-15T17:42:37.601Z,25.03
2018-12-15T17:45:07.549Z,20.67
2018-12-15T17:47:35.928Z,22.57
2018-12-15T17:50:05.073Z,19.90
2018-12-15T17:52:33.618Z,21.67
2018-12-15T17:55:02.242Z,21.17
2018-12-15T17:57:30.960Z,22.93
2018-12-15T17:59:59.546Z,21.60
2018-12-15T18:02:29.626Z,20.23
2018-12-15T18:04:58.575Z,19.70
2018-12-15T18:07:26.986Z,18.47
2018-12-15T18:09:55.853Z,26.50
2018-12-15T18:12:25.727Z,23.73
2018-12-15T18:14:54.279Z,23.10
2018-12-15T18:17:22.801Z,32.13
2018-12-15T18:19:51.278Z,25.90
2018-12-15T18:22:19.682Z,23.33
2018-12-15T18:24:48.083Z,21.67
2018-12-15T18:27:18.664Z,21.80
2018-12-15T18:29:47.163Z,19.43
2018-12-15T18:32:15.553Z,25.13
2018-12-15T18:34:43.950Z,24.80
2018-12-15T18:37:12.472Z,20.93
2018-12-15T18:39:41.043Z,21.73
2018-12-15T18:42:10.965Z,19.03
2018-12-15T18:44:39.709Z,21.77
2018-12-15T18:47:08.101Z,20.03
2018-12-15T18:49:36.917Z,20.73
2018-12-15T18:52:05.284Z,19.67
2018-12-15T18:54:33.819Z,24.13
2018-12-15T18:57:02.433Z,22.50
2018-12-15T18:59:31.252Z,22.83
2018-12-15T19:01:59.645Z,27.10
2018-12-15T19:04:28.060Z,23.97
2018-12-15T19:06:56.487Z,22.80
2018-12-15T19:09:24.880Z,22.03
2018-12-15T19:11:53.260Z,24.87
2018-12-15T19:14:21.637Z,24.40
2018-12-15T19:16:50.081Z,22.73
2018-12-15T19:19:18.537Z,22.37
2018-12-15T19:21:46.907Z,24.27
2018-12-15T19:24:15.494Z,23.97
2018-12-15T19:26:43.977Z,20.37
2018-12-15T19:29:12.388Z,21.47
2018-12-15T19:31:40.860Z,19.93
2018-12-15T19:34:09.474Z,26.57
2018-12-15T19:36:37.967Z,34.03
2018-12-15T19:39:07.862Z,24.00
2018-12-15T19:41:36.741Z,21.57
2018-12-15T19:44:05.114Z,22.77
2018-12-15T19:46:33.638Z,21.87
2018-12-15T19:49:02.069Z,20.40
2018-12-15T19:51:30.689Z,19.77
2018-12-15T19:53:59.081Z,19.40
2018-12-15T19:56:27.673Z,16.83
2018-12-15T19:58:56.089Z,17.87
2018-12-15T20:01:24.589Z,22.73
2018-12-15T20:03:52.990Z,18.57
2018-12-15T20:06:21.405Z,19.40
2018-12-15T20:08:49.858Z,21.17
2018-12-15T20:11:18.385Z,20.77
2018-12-15T20:13:47.000Z,21.30
2018-12-15T20:16:15.557Z,20.23
2018-12-15T20:18:43.939Z,22.63
2018-12-15T20:21:12.305Z,21.50
2018-12-15T20:23:40.688Z,27.53
2018-12-15T20:26:09.327Z,20.40
2018-12-15T20:28:37.763Z,20.13
2018-12-15T20:31:06.148Z,19.70
2018-12-15T20:33:34.872Z,20.97
2018-12-15T20:36:03.295Z,19.17
2018-12-15T20:38:31.760Z,19.50
2018-12-15T20:41:00.213Z,20.33
2018-12-15T20:43:28.625Z,19.10
2018-12-15T20:45:56.989Z,18.30
2018-12-15T20:48:25.440Z,18.23
2018-12-15T20:50:53.859Z,20.87
2018-12-15T20:53:22.334Z,20.33
2018-12-15T20:55:50.779Z,18.37
2018-12-15T20:58:19.205Z,16.83
2018-12-15T21:00:47.661Z,19.90
2018-12-15T21:03:16.107Z,18.03
2018-12-15T21:05:44.769Z,17.93
2018-12-15T21:08:13.368Z,16.97
2018-12-15T21:10:41.750Z,16.93
2018-12-15T21:13:10.236Z,20.30
2018-12-15T21:15:43.033Z,16.23
2018-12-15T21:18:11.523Z,18.93
2018-12-15T21:20:40.605Z,16.87
2018-12-15T21:23:09.177Z,18.53
2018-12-15T21:25:37.516Z,15.67
2018-12-15T21:28:06.069Z,16.87
2018-12-15T21:30:34.508Z,17.27
2018-12-15T21:33:02.965Z,13.67
2018-12-15T21:35:31.363Z,20.33
2018-12-15T21:37:59.794Z,18.43
2018-12-15T21:40:28.308Z,18.43
2018-12-15T21:42:56.856Z,14.27
2018-12-15T21:45:25.292Z,16.53
2018-12-15T21:47:57.640Z,15.83
2018-12-15T21:50:24.134Z,17.20
2018-12-15T21:52:52.537Z,15.87
2018-12-15T21:55:20.928Z,15.90
2018-12-15T21:57:49.359Z,16.40
2018-12-15T22:00:18.374Z,15.77
2018-12-15T22:02:46.793Z,17.97
2018-12-15T22:05:15.234Z,14.87
2018-12-15T22:07:43.660Z,16.90
2018-12-15T22:10:12.620Z,17.37
2018-12-15T22:12:41.832Z,14.33
2018-12-15T22:15:10.326Z,15.43
2018-12-15T22:17:38.711Z,16.87
2018-12-15T22:20:11.023Z,20.20
2018-12-15T22:22:40.069Z,18.07
2018-12-15T22:25:08.561Z,15.43
2018-12-15T22:27:36.962Z,15.23
2018-12-15T22:30:06.996Z,20.23
2018-12-15T22:32:35.451Z,13.40
2018-12-15T22:35:05.497Z,15.23
2018-12-15T22:37:34.136Z,13.77
2018-12-15T22:40:02.598Z,17.77
2018-12-15T22:42:31.021Z,15.87
2018-12-15T22:44:59.420Z,13.93
2018-12-15T22:47:28.184Z,15.30
2018-12-15T22:49:56.693Z,15.17
2018-12-15T22:52:25.104Z,15.80
2018-12-15T22:54:53.510Z,13.20
2018-12-15T22:57:21.972Z,14.67
2018-12-15T22:59:50.409Z,15.90
2018-12-15T23:02:18.953Z,14.87
2018-12-15T23:04:47.330Z,16.07
2018-12-15T23:07:16.298Z,14.33
2018-12-15T23:09:44.745Z,14.50
2018-12-15T23:12:13.131Z,15.00
2018-12-15T23:14:41.529Z,14.20
2018-12-15T23:17:10.442Z,14.37
2018-12-15T23:19:38.869Z,17.47
2018-12-15T23:22:07.269Z,16.43
2018-12-15T23:24:35.856Z,15.77
2018-12-15T23:27:04.372Z,16.10
2018-12-15T23:29:32.868Z,17.77
2018-12-15T23:32:01.385Z,13.30
2018-12-15T23:34:29.810Z,16.60
2018-12-15T23:36:58.236Z,17.23
2018-12-15T23:39:26.686Z,13.93
2018-12-15T23:41:55.209Z,16.23
2018-12-15T23:44:23.636Z,15.77
2018-12-15T23:46:52.045Z,15.50
2018-12-15T23:49:20.426Z,16.23
2018-12-15T23:51:48.889Z,14.10
2018-12-15T23:54:17.446Z,14.37
2018-12-15T23:56:45.858Z,17.30
2018-12-15T23:59:14.426Z,16.43
